sensor_id;sensor_type;location;lat;lon;timestamp;noise_LAeq;noise_LA_min;noise_LA_max;noise_LA01;noise_LA95
42701;Laerm;28316;49.504;8.526;2023-03-15T00:00:43;39.70;37.52;41.38;;
42701;Laerm;28316;49.504;8.526;2023-03-15T00:03:09;39.65;37.12;41.46;;
42701;Laerm;28316;49.504;8.526;2023-03-15T00:05:35;39.87;37.70;41.38;;
42701;Laerm;28316;49.504;8.526;2023-03-15T00:08:01;40.04;38.21;41.53;;
42701;Laerm;28316;49.504;8.526;2023-03-15T00:10:28;40.10;38.02;41.53;;
42701;Laerm;28316;49.504;8.526;2023-03-15T00:12:54;40.03;38.21;41.46;;
42701;Laerm;28316;49.504;8.526;2023-03-15T00:15:20;40.12;38.47;41.75;;
42701;Laerm;28316;49.504;8.526;2023-03-15T00:17:46;40.14;38.05;41.53;;
42701;Laerm;28316;49.504;8.526;2023-03-15T00:20:13;40.08;38.21;41.46;;
42701;Laerm;28316;49.504;8.526;2023-03-15T00:22:44;40.09;37.88;41.96;;
42701;Laerm;28316;49.504;8.526;2023-03-15T00:25:10;40.11;38.21;41.61;;
42701;Laerm;28316;49.504;8.526;2023-03-15T00:27:36;40.24;38.52;41.68;;
42701;Laerm;28316;49.504;8.526;2023-03-15T00:30:02;40.18;38.21;41.46;;
42701;Laerm;28316;49.504;8.526;2023-03-15T00:32:28;40.16;38.37;41.46;;
42701;Laerm;28316;49.504;8.526;2023-03-15T00:34:54;40.15;38.37;41.68;;
42701;Laerm;28316;49.504;8.526;2023-03-15T00:37:21;40.13;38.37;41.68;;
42701;Laerm;28316;49.504;8.526;2023-03-15T00:39:50;40.08;37.88;41.46;;
42701;Laerm;28316;49.504;8.526;2023-03-15T00:42:16;40.07;38.37;41.82;;
42701;Laerm;28316;49.504;8.526;2023-03-15T00:44:45;40.10;38.37;41.61;;
42701;Laerm;28316;49.504;8.526;2023-03-15T00:47:13;40.03;37.88;41.46;;
42701;Laerm;28316;49.504;8.526;2023-03-15T00:49:40;39.93;38.05;41.53;;
42701;Laerm;28316;49.504;8.526;2023-03-15T00:52:06;39.78;37.70;41.38;;
42701;Laerm;28316;49.504;8.526;2023-03-15T00:54:32;39.71;37.88;41.22;;
42701;Laerm;28316;49.504;8.526;2023-03-15T00:57:01;39.58;37.32;41.14;;
42701;Laerm;28316;49.504;8.526;2023-03-15T00:59:30;39.54;37.32;41.30;;
42701;Laerm;28316;49.504;8.526;2023-03-15T01:02:01;39.56;37.12;41.38;;
42701;Laerm;28316;49.504;8.526;2023-03-15T01:04:26;39.60;37.52;41.30;;
42701;Laerm;28316;49.504;8.526;2023-03-15T01:06:52;39.63;37.70;41.14;;
42701;Laerm;28316;49.504;8.526;2023-03-15T01:09:18;39.63;37.88;41.22;;
42701;Laerm;28316;49.504;8.526;2023-03-15T01:11:44;39.68;37.88;41.30;;
42701;Laerm;28316;49.504;8.526;2023-03-15T01:14:09;39.65;37.32;41.46;;
42701;Laerm;28316;49.504;8.526;2023-03-15T01:16:36;39.62;37.52;41.30;;
42701;Laerm;28316;49.504;8.526;2023-03-15T01:19:01;39.58;37.32;41.06;;
42701;Laerm;28316;49.504;8.526;2023-03-15T01:21:27;39.50;37.70;41.22;;
42701;Laerm;28316;49.504;8.526;2023-03-15T01:23:53;39.52;37.52;41.22;;
42701;Laerm;28316;49.504;8.526;2023-03-15T01:26:19;39.53;37.52;41.14;;
42701;Laerm;28316;49.504;8.526;2023-03-15T01:28:46;39.42;37.52;41.06;;
42701;Laerm;28316;49.504;8.526;2023-03-15T01:31:27;39.28;36.91;41.06;;
42701;Laerm;28316;49.504;8.526;2023-03-15T01:33:56;39.27;37.32;41.22;;
42701;Laerm;28316;49.504;8.526;2023-03-15T01:36:22;39.26;37.32;41.03;;
42701;Laerm;28316;49.504;8.526;2023-03-15T01:38:48;39.44;37.32;41.14;;
42701;Laerm;28316;49.504;8.526;2023-03-15T01:41:15;39.60;37.32;41.30;;
42701;Laerm;28316;49.504;8.526;2023-03-15T01:43:42;39.59;37.52;41.38;;
42701;Laerm;28316;49.504;8.526;2023-03-15T01:46:30;39.52;37.12;41.22;;
42701;Laerm;28316;49.504;8.526;2023-03-15T01:49:08;39.24;37.12;41.22;;
42701;Laerm;28316;49.504;8.526;2023-03-15T01:52:19;39.08;36.69;40.89;;
42701;Laerm;28316;49.504;8.526;2023-03-15T01:54:56;39.03;37.12;40.98;;
42701;Laerm;28316;49.504;8.526;2023-03-15T01:57:49;39.03;36.56;40.98;;
42701;Laerm;28316;49.504;8.526;2023-03-15T02:00:19;38.91;36.69;41.06;;
42701;Laerm;28316;49.504;8.526;2023-03-15T02:05:31;38.71;35.66;41.22;;
42701;Laerm;28316;49.504;8.526;2023-03-15T02:07:58;38.80;36.45;40.98;;
42701;Laerm;28316;49.504;8.526;2023-03-15T02:10:47;38.76;36.45;41.06;;
42701;Laerm;28316;49.504;8.526;2023-03-15T02:13:18;38.77;36.10;41.06;;
42701;Laerm;28316;49.504;8.526;2023-03-15T02:15:47;38.76;36.45;40.53;;
42701;Laerm;28316;49.504;8.526;2023-03-15T02:18:15;38.72;35.94;40.80;;
42701;Laerm;28316;49.504;8.526;2023-03-15T02:21:24;38.60;35.94;40.71;;
42701;Laerm;28316;49.504;8.526;2023-03-15T02:24:44;38.52;35.66;40.53;;
42701;Laerm;28316;49.504;8.526;2023-03-15T02:27:19;38.44;35.66;40.71;;
42701;Laerm;28316;49.504;8.526;2023-03-15T02:29:46;38.43;35.94;40.43;;
42701;Laerm;28316;49.504;8.526;2023-03-15T02:32:12;38.46;35.66;40.43;;
42701;Laerm;28316;49.504;8.526;2023-03-15T02:34:38;38.40;35.94;40.33;;
42701;Laerm;28316;49.504;8.526;2023-03-15T02:37:03;38.38;35.66;40.89;;
42701;Laerm;28316;49.504;8.526;2023-03-15T02:39:29;38.35;35.66;40.43;;
42701;Laerm;28316;49.504;8.526;2023-03-15T02:41:57;38.35;35.66;40.53;;
42701;Laerm;28316;49.504;8.526;2023-03-15T02:44:36;38.38;35.94;40.43;;
42701;Laerm;28316;49.504;8.526;2023-03-15T02:47:10;38.32;35.36;40.53;;
42701;Laerm;28316;49.504;8.526;2023-03-15T02:49:42;38.36;35.36;40.23;;
42701;Laerm;28316;49.504;8.526;2023-03-15T02:52:09;38.37;35.94;40.53;;
42701;Laerm;28316;49.504;8.526;2023-03-15T02:54:36;38.45;35.66;40.33;;
42701;Laerm;28316;49.504;8.526;2023-03-15T02:57:04;38.53;35.94;40.53;;
42701;Laerm;28316;49.504;8.526;2023-03-15T02:59:29;38.45;35.94;40.53;;
42701;Laerm;28316;49.504;8.526;2023-03-15T03:01:55;38.32;35.94;40.71;;
42701;Laerm;28316;49.504;8.526;2023-03-15T03:04:21;38.29;35.01;40.43;;
42701;Laerm;28316;49.504;8.526;2023-03-15T03:06:46;38.23;35.36;40.43;;
42701;Laerm;28316;49.504;8.526;2023-03-15T03:09:12;38.22;35.66;40.43;;
42701;Laerm;28316;49.504;8.526;2023-03-15T03:11:38;38.14;35.36;40.33;;
42701;Laerm;28316;49.504;8.526;2023-03-15T03:14:04;38.14;35.36;40.62;;
42701;Laerm;28316;49.504;8.526;2023-03-15T03:16:30;38.07;35.04;40.43;;
42701;Laerm;28316;49.504;8.526;2023-03-15T03:18:57;38.05;35.66;40.43;;
42701;Laerm;28316;49.504;8.526;2023-03-15T03:21:23;38.05;35.36;40.33;;
42701;Laerm;28316;49.504;8.526;2023-03-15T03:23:48;38.03;34.69;40.43;;
42701;Laerm;28316;49.504;8.526;2023-03-15T03:26:17;37.99;35.04;40.23;;
42701;Laerm;28316;49.504;8.526;2023-03-15T03:28:45;37.96;35.04;40.23;;
42701;Laerm;28316;49.504;8.526;2023-03-15T03:31:17;37.91;35.04;40.36;;
42701;Laerm;28316;49.504;8.526;2023-03-15T03:33:44;37.84;35.04;40.03;;
42701;Laerm;28316;49.504;8.526;2023-03-15T03:36:10;37.85;34.69;40.13;;
42701;Laerm;28316;49.504;8.526;2023-03-15T03:38:40;37.88;34.69;40.43;;
42701;Laerm;28316;49.504;8.526;2023-03-15T03:41:07;37.92;35.04;40.33;;
42701;Laerm;28316;49.504;8.526;2023-03-15T03:43:33;37.93;35.04;40.23;;
42701;Laerm;28316;49.504;8.526;2023-03-15T03:45:59;37.98;35.36;40.03;;
42701;Laerm;28316;49.504;8.526;2023-03-15T03:48:25;37.95;35.04;40.23;;
42701;Laerm;28316;49.504;8.526;2023-03-15T03:50:50;38.00;34.69;40.33;;
42701;Laerm;28316;49.504;8.526;2023-03-15T03:53:17;38.00;35.04;40.62;;
42701;Laerm;28316;49.504;8.526;2023-03-15T03:55:42;38.04;34.31;40.23;;
42701;Laerm;28316;49.504;8.526;2023-03-15T03:58:08;38.13;35.36;40.33;;
42701;Laerm;28316;49.504;8.526;2023-03-15T04:00:35;38.19;35.36;40.23;;
42701;Laerm;28316;49.504;8.526;2023-03-15T04:03:01;38.25;35.86;40.33;;
42701;Laerm;28316;49.504;8.526;2023-03-15T04:05:27;38.24;35.66;40.62;;
42701;Laerm;28316;49.504;8.526;2023-03-15T04:07:53;38.17;35.66;40.13;;
42701;Laerm;28316;49.504;8.526;2023-03-15T04:10:19;38.22;35.36;40.71;;
42701;Laerm;28316;49.504;8.526;2023-03-15T04:12:55;38.15;35.04;40.43;;
42701;Laerm;28316;49.504;8.526;2023-03-15T04:15:23;38.15;35.36;40.53;;
42701;Laerm;28316;49.504;8.526;2023-03-15T04:17:50;38.14;35.36;40.43;;
42701;Laerm;28316;49.504;8.526;2023-03-15T04:20:22;38.14;35.66;40.13;;
42701;Laerm;28316;49.504;8.526;2023-03-15T04:22:48;38.17;35.36;40.33;;
42701;Laerm;28316;49.504;8.526;2023-03-15T04:25:19;38.14;35.66;40.43;;
42701;Laerm;28316;49.504;8.526;2023-03-15T04:27:45;38.08;35.04;40.13;;
42701;Laerm;28316;49.504;8.526;2023-03-15T04:30:11;37.99;35.36;40.23;;
42701;Laerm;28316;49.504;8.526;2023-03-15T04:32:37;37.91;35.04;40.33;;
42701;Laerm;28316;49.504;8.526;2023-03-15T04:35:04;37.79;34.31;40.43;;
42701;Laerm;28316;49.504;8.526;2023-03-15T04:37:30;37.70;34.69;40.03;;
42701;Laerm;28316;49.504;8.526;2023-03-15T04:39:56;37.63;34.69;39.70;;
42701;Laerm;28316;49.504;8.526;2023-03-15T04:42:22;37.53;34.31;43.68;;
42701;Laerm;28316;49.504;8.526;2023-03-15T04:44:51;37.47;33.90;39.92;;
42701;Laerm;28316;49.504;8.526;2023-03-15T04:47:18;37.43;34.31;40.33;;
42701;Laerm;28316;49.504;8.526;2023-03-15T04:49:45;37.40;32.93;39.81;;
42701;Laerm;28316;49.504;8.526;2023-03-15T04:52:10;37.40;33.90;39.92;;
42701;Laerm;28316;49.504;8.526;2023-03-15T04:54:36;37.40;34.31;39.92;;
42701;Laerm;28316;49.504;8.526;2023-03-15T04:57:04;37.42;34.31;40.33;;
42701;Laerm;28316;49.504;8.526;2023-03-15T04:59:29;37.45;33.90;39.81;;
42701;Laerm;28316;49.504;8.526;2023-03-15T05:01:55;37.43;33.90;39.70;;
42701;Laerm;28316;49.504;8.526;2023-03-15T05:04:21;37.50;33.90;39.81;;
42701;Laerm;28316;49.504;8.526;2023-03-15T05:06:47;37.50;33.90;40.33;;
42701;Laerm;28316;49.504;8.526;2023-03-15T05:09:12;37.52;34.31;40.13;;
42701;Laerm;28316;49.504;8.526;2023-03-15T05:11:44;37.54;34.31;40.03;;
42701;Laerm;28316;49.504;8.526;2023-03-15T05:14:11;37.56;34.31;39.92;;
42701;Laerm;28316;49.504;8.526;2023-03-15T05:16:37;37.61;34.69;40.03;;
42701;Laerm;28316;49.504;8.526;2023-03-15T05:19:02;37.65;34.34;40.23;;
42701;Laerm;28316;49.504;8.526;2023-03-15T05:21:28;37.70;34.69;40.03;;
42701;Laerm;28316;49.504;8.526;2023-03-15T05:23:54;37.74;34.69;40.13;;
42701;Laerm;28316;49.504;8.526;2023-03-15T05:26:20;37.77;34.69;40.13;;
42701;Laerm;28316;49.504;8.526;2023-03-15T05:28:45;37.80;34.69;40.23;;
42701;Laerm;28316;49.504;8.526;2023-03-15T05:31:11;37.82;35.04;40.13;;
42701;Laerm;28316;49.504;8.526;2023-03-15T05:33:37;37.82;34.34;40.33;;
42701;Laerm;28316;49.504;8.526;2023-03-15T05:36:05;37.83;35.04;40.33;;
42701;Laerm;28316;49.504;8.526;2023-03-15T05:38:30;37.85;35.04;40.27;;
42701;Laerm;28316;49.504;8.526;2023-03-15T05:40:56;37.82;35.31;39.92;;
42701;Laerm;28316;49.504;8.526;2023-03-15T05:43:22;37.82;34.69;40.23;;
42701;Laerm;28316;49.504;8.526;2023-03-15T05:45:47;37.86;34.69;40.13;;
42701;Laerm;28316;49.504;8.526;2023-03-15T05:48:14;37.88;34.69;40.71;;
42701;Laerm;28316;49.504;8.526;2023-03-15T05:50:41;37.83;33.90;40.23;;
42701;Laerm;28316;49.504;8.526;2023-03-15T05:53:06;37.84;34.69;40.23;;
42701;Laerm;28316;49.504;8.526;2023-03-15T05:55:32;37.86;33.90;40.43;;
42701;Laerm;28316;49.504;8.526;2023-03-15T05:57:58;37.86;34.69;40.03;;
42701;Laerm;28316;49.504;8.526;2023-03-15T06:00:23;37.86;32.93;40.43;;
42701;Laerm;28316;49.504;8.526;2023-03-15T06:02:49;37.86;34.31;39.92;;
42701;Laerm;28316;49.504;8.526;2023-03-15T06:05:15;37.92;35.04;40.03;;
42701;Laerm;28316;49.504;8.526;2023-03-15T06:07:41;37.94;34.69;40.33;;
42701;Laerm;28316;49.504;8.526;2023-03-15T06:10:07;37.95;35.04;40.23;;
42701;Laerm;28316;49.504;8.526;2023-03-15T06:12:33;37.96;35.36;40.33;;
42701;Laerm;28316;49.504;8.526;2023-03-15T06:14:59;37.99;35.36;40.23;;
42701;Laerm;28316;49.504;8.526;2023-03-15T06:17:25;38.00;35.04;40.23;;
42701;Laerm;28316;49.504;8.526;2023-03-15T06:19:50;38.05;35.36;40.71;;
42701;Laerm;28316;49.504;8.526;2023-03-15T06:22:16;38.09;35.04;40.62;;
42701;Laerm;28316;49.504;8.526;2023-03-15T06:24:45;38.12;35.04;40.43;;
42701;Laerm;28316;49.504;8.526;2023-03-15T06:27:11;38.13;35.66;40.98;;
42701;Laerm;28316;49.504;8.526;2023-03-15T06:29:37;38.14;35.01;40.71;;
42701;Laerm;28316;49.504;8.526;2023-03-15T06:32:03;38.19;35.04;40.43;;
42701;Laerm;28316;49.504;8.526;2023-03-15T06:34:29;38.20;35.36;40.53;;
42701;Laerm;28316;49.504;8.526;2023-03-15T06:36:54;38.22;35.04;40.13;;
42701;Laerm;28316;49.504;8.526;2023-03-15T06:39:20;38.26;35.04;40.43;;
42701;Laerm;28316;49.504;8.526;2023-03-15T06:41:48;38.31;35.66;40.33;;
42701;Laerm;28316;49.504;8.526;2023-03-15T06:44:13;38.39;35.94;40.62;;
42701;Laerm;28316;49.504;8.526;2023-03-15T06:46:39;38.48;35.66;40.62;;
42701;Laerm;28316;49.504;8.526;2023-03-15T06:49:05;38.49;35.36;40.43;;
42701;Laerm;28316;49.504;8.526;2023-03-15T06:51:31;38.54;35.94;40.43;;
42701;Laerm;28316;49.504;8.526;2023-03-15T06:53:57;38.67;35.94;40.71;;
42701;Laerm;28316;49.504;8.526;2023-03-15T06:56:22;38.75;36.20;40.62;;
42701;Laerm;28316;49.504;8.526;2023-03-15T06:58:48;38.85;36.45;40.71;;
42701;Laerm;28316;49.504;8.526;2023-03-15T07:01:14;38.96;36.45;40.98;;
42701;Laerm;28316;49.504;8.526;2023-03-15T07:03:41;39.05;36.69;40.98;;
42701;Laerm;28316;49.504;8.526;2023-03-15T07:06:07;39.09;36.69;40.89;;
42701;Laerm;28316;49.504;8.526;2023-03-15T07:08:33;39.07;36.45;40.71;;
42701;Laerm;28316;49.504;8.526;2023-03-15T07:10:59;39.08;36.91;40.71;;
42701;Laerm;28316;49.504;8.526;2023-03-15T07:13:25;39.15;36.69;40.89;;
42701;Laerm;28316;49.504;8.526;2023-03-15T07:15:52;39.18;36.69;41.06;;
42701;Laerm;28316;49.504;8.526;2023-03-15T07:18:18;39.21;37.32;40.98;;
42701;Laerm;28316;49.504;8.526;2023-03-15T07:20:44;39.18;36.69;41.06;;
42701;Laerm;28316;49.504;8.526;2023-03-15T07:23:10;39.24;37.12;40.89;;
42701;Laerm;28316;49.504;8.526;2023-03-15T07:25:36;39.28;37.12;41.22;;
42701;Laerm;28316;49.504;8.526;2023-03-15T07:28:01;39.39;37.32;41.06;;
42701;Laerm;28316;49.504;8.526;2023-03-15T07:30:27;39.46;37.32;41.22;;
42701;Laerm;28316;49.504;8.526;2023-03-15T07:32:53;39.40;37.52;41.06;;
42701;Laerm;28316;49.504;8.526;2023-03-15T07:35:19;39.44;37.32;41.22;;
42701;Laerm;28316;49.504;8.526;2023-03-15T07:37:45;39.50;37.32;41.38;;
42701;Laerm;28316;49.504;8.526;2023-03-15T07:40:12;39.37;37.12;40.89;;
42701;Laerm;28316;49.504;8.526;2023-03-15T07:42:41;39.39;37.32;40.89;;
42701;Laerm;28316;49.504;8.526;2023-03-15T07:45:08;39.63;37.70;41.22;;
42701;Laerm;28316;49.504;8.526;2023-03-15T07:47:34;39.74;37.88;41.38;;
42701;Laerm;28316;49.504;8.526;2023-03-15T07:50:01;39.91;38.05;41.46;;
42701;Laerm;28316;49.504;8.526;2023-03-15T07:52:26;39.95;38.21;41.38;;
42701;Laerm;28316;49.504;8.526;2023-03-15T07:54:52;40.15;38.21;41.68;;
42701;Laerm;28316;49.504;8.526;2023-03-15T07:57:18;40.24;38.37;41.75;;
42701;Laerm;28316;49.504;8.526;2023-03-15T07:59:44;40.22;38.37;41.61;;
42701;Laerm;28316;49.504;8.526;2023-03-15T08:02:12;40.33;38.81;41.82;;
42701;Laerm;28316;49.504;8.526;2023-03-15T08:04:39;40.31;38.67;41.82;;
42701;Laerm;28316;49.504;8.526;2023-03-15T08:07:05;40.03;36.20;41.75;;
42701;Laerm;28316;49.504;8.526;2023-03-15T08:09:32;39.60;36.20;41.46;;
42701;Laerm;28316;49.504;8.526;2023-03-15T08:11:59;40.27;38.52;41.68;;
42701;Laerm;28316;49.504;8.526;2023-03-15T08:14:26;40.37;38.67;41.96;;
42701;Laerm;28316;49.504;8.526;2023-03-15T08:16:51;40.47;38.81;41.75;;
42701;Laerm;28316;49.504;8.526;2023-03-15T08:19:17;40.59;39.08;42.29;;
42701;Laerm;28316;49.504;8.526;2023-03-15T08:21:43;40.73;39.08;42.41;;
42701;Laerm;28316;49.504;8.526;2023-03-15T08:24:13;40.77;39.08;42.09;;
42701;Laerm;28316;49.504;8.526;2023-03-15T08:26:40;40.73;38.81;42.03;;
42701;Laerm;28316;49.504;8.526;2023-03-15T08:29:07;40.80;39.21;42.22;;
42701;Laerm;28316;49.504;8.526;2023-03-15T08:31:33;40.83;39.21;42.35;;
42701;Laerm;28316;49.504;8.526;2023-03-15T08:33:59;40.96;38.52;42.29;;
42701;Laerm;28316;49.504;8.526;2023-03-15T08:36:25;41.07;39.46;42.30;;
42701;Laerm;28316;49.504;8.526;2023-03-15T08:38:51;41.03;39.34;42.29;;
42701;Laerm;28316;49.504;8.526;2023-03-15T08:41:17;40.88;39.21;42.22;;
42701;Laerm;28316;49.504;8.526;2023-03-15T08:43:43;40.88;39.21;42.22;;
42701;Laerm;28316;49.504;8.526;2023-03-15T08:46:08;40.58;37.52;42.09;;
42701;Laerm;28316;49.504;8.526;2023-03-15T08:48:34;37.94;33.90;44.62;;
42701;Laerm;28316;49.504;8.526;2023-03-15T08:51:04;37.23;33.44;39.92;;
42701;Laerm;28316;49.504;8.526;2023-03-15T08:53:31;36.99;32.35;39.46;;
42701;Laerm;28316;49.504;8.526;2023-03-15T08:55:57;36.80;32.35;39.46;;
42701;Laerm;28316;49.504;8.526;2023-03-15T08:58:23;36.69;31.68;39.58;;
42701;Laerm;28316;49.504;8.526;2023-03-15T09:00:50;36.67;31.68;39.34;;
42701;Laerm;28316;49.504;8.526;2023-03-15T09:03:17;36.59;29.92;39.34;;
42701;Laerm;28316;49.504;8.526;2023-03-15T09:05:43;36.58;31.68;39.58;;
42701;Laerm;28316;49.504;8.526;2023-03-15T09:08:09;36.51;30.89;39.70;;
42701;Laerm;28316;49.504;8.526;2023-03-15T09:10:35;36.46;31.68;39.46;;
42701;Laerm;28316;49.504;8.526;2023-03-15T09:13:01;36.43;30.89;39.08;;
42701;Laerm;28316;49.504;8.526;2023-03-15T09:15:27;36.42;29.92;39.58;;
42701;Laerm;28316;49.504;8.526;2023-03-15T09:17:53;36.42;30.89;39.46;;
42701;Laerm;28316;49.504;8.526;2023-03-15T09:20:19;36.35;29.92;39.58;;
42701;Laerm;28316;49.504;8.526;2023-03-15T09:22:53;36.33;28.67;39.21;;
42701;Laerm;28316;49.504;8.526;2023-03-15T09:25:19;36.34;29.92;39.34;;
42701;Laerm;28316;49.504;8.526;2023-03-15T09:27:45;36.35;29.92;39.21;;
42701;Laerm;28316;49.504;8.526;2023-03-15T09:30:12;36.37;29.57;39.34;;
42701;Laerm;28316;49.504;8.526;2023-03-15T09:32:39;36.51;30.89;39.34;;
42701;Laerm;28316;49.504;8.526;2023-03-15T09:35:07;36.48;30.89;39.46;;
42701;Laerm;28316;49.504;8.526;2023-03-15T09:37:34;36.40;29.92;39.21;;
42701;Laerm;28316;49.504;8.526;2023-03-15T09:40:00;36.51;28.67;40.33;;
42701;Laerm;28316;49.504;8.526;2023-03-15T09:45:43;36.21;29.92;39.46;;
42701;Laerm;28316;49.504;8.526;2023-03-15T09:51:56;36.21;28.67;39.70;;
42701;Laerm;28316;49.504;8.526;2023-03-15T09:54:59;36.24;28.67;39.46;;
42701;Laerm;28316;49.504;8.526;2023-03-15T09:57:46;36.19;26.91;39.34;;
42701;Laerm;28316;49.504;8.526;2023-03-15T10:00:20;36.12;28.67;39.08;;
42701;Laerm;28316;49.504;8.526;2023-03-15T10:02:59;36.17;29.57;39.92;;
42701;Laerm;28316;49.504;8.526;2023-03-15T10:05:46;36.14;28.67;39.46;;
42701;Laerm;28316;49.504;8.526;2023-03-15T10:08:16;36.10;28.67;39.08;;
42701;Laerm;28316;49.504;8.526;2023-03-15T10:11:13;36.12;23.90;39.21;;
42701;Laerm;28316;49.504;8.526;2023-03-15T10:16:35;36.06;29.92;39.34;;
42701;Laerm;28316;49.504;8.526;2023-03-15T10:24:39;36.01;26.91;39.34;;
42701;Laerm;28316;49.504;8.526;2023-03-15T10:29:52;35.91;26.91;39.92;;
42701;Laerm;28316;49.504;8.526;2023-03-15T10:32:24;35.89;29.92;39.46;;
42701;Laerm;28316;49.504;8.526;2023-03-15T10:34:55;35.88;26.91;39.34;;
42701;Laerm;28316;49.504;8.526;2023-03-15T10:37:23;35.85;28.67;39.70;;
42701;Laerm;28316;49.504;8.526;2023-03-15T10:39:57;35.82;23.90;39.34;;
42701;Laerm;28316;49.504;8.526;2023-03-15T10:42:31;35.88;28.67;39.11;;
42701;Laerm;28316;49.504;8.526;2023-03-15T10:44:58;35.81;26.91;38.81;;
42701;Laerm;28316;49.504;8.526;2023-03-15T10:47:43;35.80;5.00;39.21;;
42701;Laerm;28316;49.504;8.526;2023-03-15T10:50:15;35.79;26.91;39.08;;
42701;Laerm;28316;49.504;8.526;2023-03-15T10:52:43;35.78;28.67;39.08;;
42701;Laerm;28316;49.504;8.526;2023-03-15T10:55:17;35.78;5.00;39.08;;
42701;Laerm;28316;49.504;8.526;2023-03-15T10:57:59;35.75;26.91;38.81;;
42701;Laerm;28316;49.504;8.526;2023-03-15T11:00:36;35.74;26.91;38.95;;
42701;Laerm;28316;49.504;8.526;2023-03-15T11:03:21;35.76;26.91;39.46;;
42701;Laerm;28316;49.504;8.526;2023-03-15T11:05:53;35.74;23.90;39.34;;
42701;Laerm;28316;49.504;8.526;2023-03-15T11:11:02;35.72;5.00;38.95;;
42701;Laerm;28316;49.504;8.526;2023-03-15T11:13:36;35.74;26.91;39.08;;
42701;Laerm;28316;49.504;8.526;2023-03-15T11:18:46;35.69;26.91;39.08;;
42701;Laerm;28316;49.504;8.526;2023-03-15T11:21:19;35.69;23.90;39.34;;
42701;Laerm;28316;49.504;8.526;2023-03-15T11:23:49;35.67;26.91;39.46;;
42701;Laerm;28316;49.504;8.526;2023-03-15T11:26:24;35.67;5.00;39.35;;
42701;Laerm;28316;49.504;8.526;2023-03-15T11:31:49;35.67;28.67;39.08;;
42701;Laerm;28316;49.504;8.526;2023-03-15T11:34:24;35.68;26.91;39.21;;
42701;Laerm;28316;49.504;8.526;2023-03-15T11:36:59;35.64;23.90;38.95;;
42701;Laerm;28316;49.504;8.526;2023-03-15T11:39:50;35.62;23.90;38.95;;
42701;Laerm;28316;49.504;8.526;2023-03-15T11:45:50;35.61;26.91;39.08;;
42701;Laerm;28316;49.504;8.526;2023-03-15T11:50:56;35.60;23.90;38.67;;
42701;Laerm;28316;49.504;8.526;2023-03-15T11:53:31;35.61;26.91;38.95;;
42701;Laerm;28316;49.504;8.526;2023-03-15T11:56:24;35.59;26.91;39.21;;
42701;Laerm;28316;49.504;8.526;2023-03-15T12:01:50;35.59;23.90;39.08;;
42701;Laerm;28316;49.504;8.526;2023-03-15T12:06:59;35.56;26.56;38.95;;
42701;Laerm;28316;49.504;8.526;2023-03-15T12:17:54;35.74;23.55;39.21;;
42701;Laerm;28316;49.504;8.526;2023-03-15T12:20:41;35.93;26.91;39.21;;
42701;Laerm;28316;49.504;8.526;2023-03-15T12:31:23;38.43;35.04;40.62;;
42701;Laerm;28316;49.504;8.526;2023-03-15T12:33:54;39.77;37.12;41.61;;
42701;Laerm;28316;49.504;8.526;2023-03-15T12:36:41;40.27;38.67;41.68;;
42701;Laerm;28316;49.504;8.526;2023-03-15T12:41:46;40.65;38.95;41.82;;
42701;Laerm;28316;49.504;8.526;2023-03-15T12:47:02;40.94;39.21;42.35;;
42701;Laerm;28316;49.504;8.526;2023-03-15T12:49:31;40.91;39.34;42.09;;
42701;Laerm;28316;49.504;8.526;2023-03-15T12:55:02;40.81;39.21;42.35;;
42701;Laerm;28316;49.504;8.526;2023-03-15T12:57:38;40.86;39.34;42.03;;
42701;Laerm;28316;49.504;8.526;2023-03-15T13:00:20;41.10;39.58;42.42;;
42701;Laerm;28316;49.504;8.526;2023-03-15T13:08:29;41.78;40.23;42.79;;
42701;Laerm;28316;49.504;8.526;2023-03-15T13:13:47;41.93;40.53;43.19;;
42701;Laerm;28316;49.504;8.526;2023-03-15T13:22:04;41.56;39.81;42.88;;
42701;Laerm;28316;49.504;8.526;2023-03-15T13:24:38;41.89;40.53;43.19;;
42701;Laerm;28316;49.504;8.526;2023-03-15T13:27:44;41.85;40.33;42.98;;
42701;Laerm;28316;49.504;8.526;2023-03-15T13:30:36;41.70;40.33;43.68;;
42701;Laerm;28316;49.504;8.526;2023-03-15T13:38:56;41.71;40.13;42.82;;
42701;Laerm;28316;49.504;8.526;2023-03-15T13:41:28;41.91;40.53;43.09;;
42701;Laerm;28316;49.504;8.526;2023-03-15T13:43:57;41.73;40.08;42.98;;
42701;Laerm;28316;49.504;8.526;2023-03-15T13:46:28;41.71;40.13;43.04;;
42701;Laerm;28316;49.504;8.526;2023-03-15T13:48:55;41.74;40.03;43.90;;
42701;Laerm;28316;49.504;8.526;2023-03-15T13:56:36;41.42;39.58;42.82;;
42701;Laerm;28316;49.504;8.526;2023-03-15T13:59:04;41.29;39.46;43.63;;
42701;Laerm;28316;49.504;8.526;2023-03-15T14:01:31;41.19;39.21;42.59;;
42701;Laerm;28316;49.504;8.526;2023-03-15T14:04:16;40.78;38.52;42.41;;
42701;Laerm;28316;49.504;8.526;2023-03-15T14:06:43;40.59;37.70;42.59;;
42701;Laerm;28316;49.504;8.526;2023-03-15T14:09:21;40.63;38.52;42.47;;
42701;Laerm;28316;49.504;8.526;2023-03-15T14:12:05;40.77;38.21;43.34;;
42701;Laerm;28316;49.504;8.526;2023-03-15T14:14:52;40.85;38.81;42.35;;
42701;Laerm;28316;49.504;8.526;2023-03-15T14:17:29;40.95;38.52;42.76;;
42701;Laerm;28316;49.504;8.526;2023-03-15T14:20:05;40.99;38.67;42.41;;
42701;Laerm;28316;49.504;8.526;2023-03-15T14:22:34;40.97;39.08;42.47;;
42701;Laerm;28316;49.504;8.526;2023-03-15T14:25:02;41.04;38.95;42.59;;
42701;Laerm;28316;49.504;8.526;2023-03-15T14:27:29;41.24;39.21;42.71;;
42701;Laerm;28316;49.504;8.526;2023-03-15T14:29:59;41.74;40.03;42.98;;
42701;Laerm;28316;49.504;8.526;2023-03-15T14:32:27;41.60;40.03;42.82;;
42701;Laerm;28316;49.504;8.526;2023-03-15T14:35:40;41.30;39.81;42.47;;
42701;Laerm;28316;49.504;8.526;2023-03-15T14:38:14;41.20;39.81;42.41;;
42701;Laerm;28316;49.504;8.526;2023-03-15T14:40:40;41.22;39.92;42.41;;
42701;Laerm;28316;49.504;8.526;2023-03-15T14:43:07;41.30;39.92;42.47;;
42701;Laerm;28316;49.504;8.526;2023-03-15T14:45:36;41.59;39.81;43.04;;
42701;Laerm;28316;49.504;8.526;2023-03-15T14:48:11;41.63;40.27;43.09;;
42701;Laerm;28316;49.504;8.526;2023-03-15T14:50:43;41.44;40.13;42.59;;
42701;Laerm;28316;49.504;8.526;2023-03-15T14:53:21;41.77;40.53;42.88;;
42701;Laerm;28316;49.504;8.526;2023-03-15T14:55:48;41.67;40.33;42.76;;
42701;Laerm;28316;49.504;8.526;2023-03-15T14:58:17;41.82;40.23;43.68;;
42701;Laerm;28316;49.504;8.526;2023-03-15T15:00:49;41.92;40.43;43.14;;
42701;Laerm;28316;49.504;8.526;2023-03-15T15:05:56;41.57;39.58;42.93;;
42701;Laerm;28316;49.504;8.526;2023-03-15T15:08:22;41.21;38.52;43.49;;
42701;Laerm;28316;49.504;8.526;2023-03-15T15:10:51;40.94;38.81;42.65;;
42701;Laerm;28316;49.504;8.526;2023-03-15T15:13:21;40.77;38.21;42.47;;
42701;Laerm;28316;49.504;8.526;2023-03-15T15:15:48;40.65;38.67;42.41;;
42701;Laerm;28316;49.504;8.526;2023-03-15T15:18:15;40.71;37.52;42.93;;
42701;Laerm;28316;49.504;8.526;2023-03-15T15:20:41;41.09;39.34;42.64;;
42701;Laerm;28316;49.504;8.526;2023-03-15T15:23:41;41.35;39.46;42.76;;
42701;Laerm;28316;49.504;8.526;2023-03-15T15:26:18;41.17;39.21;42.65;;
42701;Laerm;28316;49.504;8.526;2023-03-15T15:28:45;41.38;39.46;42.76;;
42701;Laerm;28316;49.504;8.526;2023-03-15T15:31:20;41.74;39.81;42.98;;